createdAt,value
2024-05-09T00:01:59.290Z,9.68
2024-05-09T00:04:29.965Z,9.64
2024-05-09T00:07:03.631Z,9.64
2024-05-09T00:09:34.913Z,9.57
2024-05-09T00:12:05.596Z,9.63
2024-05-09T00:14:38.266Z,9.72
2024-05-09T00:17:10.423Z,9.72
2024-05-09T00:19:43.024Z,9.83
2024-05-09T00:22:14.408Z,9.82
2024-05-09T00:24:45.562Z,9.87
2024-05-09T00:27:19.254Z,9.94
2024-05-09T00:29:54.094Z,9.91
2024-05-09T00:32:27.258Z,9.99
2024-05-09T00:35:01.130Z,9.92
2024-05-09T00:37:30.881Z,9.81
2024-05-09T00:40:00.659Z,9.85
2024-05-09T00:42:31.067Z,9.79
2024-05-09T00:45:03.730Z,9.63
2024-05-09T00:47:33.933Z,9.60
2024-05-09T00:50:09.809Z,9.45
2024-05-09T00:52:44.177Z,9.31
2024-05-09T00:55:15.201Z,9.24
2024-05-09T00:57:46.810Z,9.27
2024-05-09T01:00:27.151Z,9.23
2024-05-09T01:03:05.932Z,9.21
2024-05-09T01:05:49.075Z,9.12
2024-05-09T01:08:19.927Z,9.18
2024-05-09T01:10:50.474Z,9.06
2024-05-09T01:13:21.978Z,9.02
2024-05-09T01:15:58.111Z,9.07
2024-05-09T01:18:30.436Z,9.07
2024-05-09T01:21:01.744Z,9.01
2024-05-09T01:23:35.063Z,8.99
2024-05-09T01:26:07.884Z,8.90
2024-05-09T01:28:40.579Z,8.83
2024-05-09T01:31:16.492Z,8.80
2024-05-09T01:33:49.500Z,8.75
2024-05-09T01:36:22.572Z,8.70
2024-05-09T01:38:56.180Z,8.65
2024-05-09T01:41:26.546Z,8.72
2024-05-09T01:43:57.021Z,8.67
2024-05-09T01:46:27.536Z,8.69
2024-05-09T01:48:59.063Z,8.73
2024-05-09T01:51:29.709Z,8.63
2024-05-09T01:54:02.563Z,8.67
2024-05-09T01:56:33.953Z,8.63
2024-05-09T01:59:04.888Z,8.60
2024-05-09T02:01:55.789Z,8.70
2024-05-09T02:04:33.051Z,8.68
2024-05-09T02:07:04.096Z,8.59
2024-05-09T02:09:37.558Z,8.62
2024-05-09T02:12:08.875Z,8.19
2024-05-09T02:14:39.054Z,8.48
2024-05-09T02:17:11.969Z,8.43
2024-05-09T02:19:43.899Z,8.47
2024-05-09T02:22:14.199Z,8.43
2024-05-09T02:24:47.647Z,8.46
2024-05-09T02:27:17.917Z,8.41
2024-05-09T02:29:48.157Z,8.33
2024-05-09T02:32:24.198Z,8.39
2024-05-09T02:34:55.518Z,8.33
2024-05-09T02:37:26.773Z,8.27
2024-05-09T02:39:56.925Z,8.24
2024-05-09T02:42:32.426Z,8.29
2024-05-09T02:45:00.369Z,8.20
2024-05-09T02:47:34.953Z,8.19
2024-05-09T02:50:07.780Z,8.20
2024-05-09T02:52:38.395Z,8.14
2024-05-09T02:55:08.679Z,8.05
2024-05-09T02:57:38.658Z,8.03
2024-05-09T03:00:12.018Z,8.06
2024-05-09T03:02:46.354Z,8.01
2024-05-09T03:05:14.075Z,7.99
2024-05-09T03:07:45.948Z,7.98
2024-05-09T03:10:22.269Z,7.94
2024-05-09T03:12:58.732Z,7.99
2024-05-09T03:15:25.953Z,8.00
2024-05-09T03:17:57.180Z,7.92
2024-05-09T03:20:32.257Z,7.93
2024-05-09T03:23:05.491Z,7.85
2024-05-09T03:25:36.175Z,7.87
2024-05-09T03:28:07.044Z,7.88
2024-05-09T03:30:41.104Z,7.85
2024-05-09T03:33:18.025Z,7.87
2024-05-09T03:35:49.524Z,7.81
2024-05-09T03:38:20.022Z,7.81
2024-05-09T03:40:53.426Z,7.81
2024-05-09T03:43:22.059Z,7.76
2024-05-09T03:48:37.889Z,7.64
2024-05-09T03:51:08.740Z,7.69
2024-05-09T03:53:36.433Z,7.61
2024-05-09T03:56:16.976Z,7.56
2024-05-09T03:58:44.892Z,7.64
2024-05-09T04:01:15.062Z,7.60
2024-05-09T04:03:43.144Z,7.65
2024-05-09T04:06:13.859Z,7.61
2024-05-09T04:08:41.144Z,7.65
2024-05-09T04:11:15.987Z,7.64
2024-05-09T04:13:43.975Z,7.72
2024-05-09T04:16:14.819Z,7.69
2024-05-09T04:18:42.385Z,7.76
2024-05-09T04:21:12.980Z,7.75
2024-05-09T04:23:40.911Z,7.75
2024-05-09T04:26:11.603Z,7.81
2024-05-09T04:28:44.683Z,7.84
2024-05-09T04:31:15.605Z,7.80
2024-05-09T04:33:46.802Z,7.82
2024-05-09T04:36:17.030Z,7.78
2024-05-09T04:38:46.319Z,7.95
2024-05-09T04:41:20.462Z,8.00
2024-05-09T04:43:51.562Z,8.42
2024-05-09T04:46:23.101Z,9.00
2024-05-09T04:48:53.674Z,9.19
2024-05-09T04:51:26.600Z,9.35
2024-05-09T04:53:55.459Z,9.55
2024-05-09T04:56:27.480Z,9.66
2024-05-09T04:58:57.842Z,9.94
2024-05-09T05:01:28.383Z,9.99
2024-05-09T05:03:58.010Z,10.06
2024-05-09T05:06:28.238Z,10.60
2024-05-09T05:08:57.254Z,10.72
2024-05-09T05:11:27.463Z,10.69
2024-05-09T05:13:57.676Z,11.09
2024-05-09T05:16:29.032Z,11.44
2024-05-09T05:18:56.507Z,13.91
2024-05-09T05:21:27.400Z,15.29
2024-05-09T05:23:54.605Z,13.83
2024-05-09T05:26:25.483Z,15.61
2024-05-09T05:28:53.078Z,14.45
2024-05-09T05:31:26.494Z,16.87
2024-05-09T05:33:54.731Z,16.32
2024-05-09T05:36:24.878Z,16.88
2024-05-09T05:38:53.202Z,18.94
2024-05-09T05:41:23.243Z,17.65
2024-05-09T05:43:50.611Z,17.20
2024-05-09T05:46:21.929Z,15.87
2024-05-09T05:48:53.682Z,15.13
2024-05-09T05:51:25.010Z,14.91
2024-05-09T05:53:55.260Z,14.81
2024-05-09T05:56:25.739Z,15.52
2024-05-09T05:58:55.261Z,13.82
2024-05-09T06:01:25.396Z,16.54
2024-05-09T06:03:56.112Z,14.82
2024-05-09T06:06:27.418Z,14.93
2024-05-09T06:08:55.270Z,15.57
2024-05-09T06:11:28.439Z,15.35
2024-05-09T06:13:57.657Z,14.25
2024-05-09T06:16:28.480Z,16.10
2024-05-09T06:19:01.601Z,15.91
2024-05-09T06:21:31.611Z,16.80
2024-05-09T06:24:05.335Z,17.38
2024-05-09T06:26:37.387Z,17.63
2024-05-09T06:29:05.617Z,16.68
2024-05-09T06:31:43.916Z,15.29
2024-05-09T06:34:13.832Z,16.60
2024-05-09T06:36:45.246Z,16.44
2024-05-09T06:39:14.202Z,17.69
2024-05-09T06:41:46.930Z,17.06
2024-05-09T06:44:15.470Z,17.57
2024-05-09T06:46:50.687Z,15.81
2024-05-09T06:49:21.404Z,16.34
2024-05-09T06:51:57.387Z,15.26
2024-05-09T06:54:25.926Z,15.73
2024-05-09T06:56:56.335Z,17.59
2024-05-09T06:59:25.474Z,17.27
2024-05-09T07:01:56.362Z,17.99
2024-05-09T07:04:28.461Z,19.30
2024-05-09T07:07:00.155Z,18.69
2024-05-09T07:09:28.508Z,18.45
2024-05-09T07:11:58.747Z,17.53
2024-05-09T07:14:34.512Z,18.64
2024-05-09T07:17:09.647Z,19.10
2024-05-09T07:19:40.342Z,19.57
2024-05-09T07:22:10.515Z,20.96
2024-05-09T07:24:38.071Z,21.42
2024-05-09T07:27:09.563Z,20.30
2024-05-09T07:29:40.670Z,21.45
2024-05-09T07:32:12.205Z,18.15
2024-05-09T07:34:43.697Z,20.68
2024-05-09T07:37:15.806Z,21.55
2024-05-09T07:39:43.198Z,19.65
2024-05-09T07:42:14.222Z,18.46
2024-05-09T07:44:42.305Z,20.52
2024-05-09T07:48:27.705Z,20.42
2024-05-09T07:52:22.649Z,19.76
2024-05-09T07:55:26.881Z,20.30
2024-05-09T07:57:56.986Z,25.27
2024-05-09T08:00:30.903Z,23.65
2024-05-09T08:03:01.582Z,20.65
2024-05-09T08:05:32.686Z,20.78
2024-05-09T08:08:03.306Z,21.42
2024-05-09T08:10:31.078Z,23.09
2024-05-09T08:13:01.042Z,25.57
2024-05-09T08:15:29.606Z,23.72
2024-05-09T08:18:01.649Z,21.48
2024-05-09T08:20:33.494Z,21.14
2024-05-09T08:23:08.112Z,22.82
2024-05-09T08:26:01.068Z,21.59
2024-05-09T08:28:32.993Z,21.46
2024-05-09T08:31:06.973Z,22.04
2024-05-09T08:33:47.517Z,21.31
2024-05-09T08:36:19.828Z,24.28
2024-05-09T08:39:05.665Z,21.79
2024-05-09T08:41:43.156Z,23.90
2024-05-09T08:44:33.548Z,22.12
2024-05-09T08:47:10.241Z,21.70
2024-05-09T08:49:57.372Z,22.23
2024-05-09T08:52:39.720Z,23.23
2024-05-09T08:55:29.045Z,22.27
2024-05-09T08:58:14.895Z,23.27
2024-05-09T09:00:49.442Z,23.24
2024-05-09T09:04:22.675Z,25.62
2024-05-09T09:07:22.606Z,23.07
2024-05-09T09:10:24.974Z,23.40
2024-05-09T09:13:05.355Z,24.95
2024-05-09T09:15:49.152Z,22.66
2024-05-09T09:18:24.340Z,23.22
2024-05-09T09:21:04.500Z,25.38
2024-05-09T09:23:38.423Z,23.97
2024-05-09T09:26:42.741Z,22.13
2024-05-09T09:29:36.094Z,24.31
2024-05-09T09:32:14.918Z,23.62
2024-05-09T09:35:10.713Z,23.47
2024-05-09T09:37:49.980Z,24.29
2024-05-09T09:40:31.932Z,24.17
2024-05-09T09:43:28.803Z,24.68
2024-05-09T09:46:22.546Z,24.96
2024-05-09T09:48:55.217Z,24.38
2024-05-09T09:51:26.835Z,24.10
2024-05-09T09:54:09.249Z,22.95
2024-05-09T09:56:39.843Z,22.11
2024-05-09T09:59:13.142Z,23.85
2024-05-09T10:01:47.894Z,26.06
2024-05-09T10:04:25.992Z,24.27
2024-05-09T10:07:27.692Z,25.10
2024-05-09T10:10:11.010Z,25.27
2024-05-09T10:13:00.224Z,24.60
2024-05-09T10:15:33.130Z,23.71
2024-05-09T10:21:36.105Z,25.19
2024-05-09T10:24:36.003Z,23.70
2024-05-09T10:27:21.214Z,25.55
2024-05-09T10:30:36.290Z,26.34
2024-05-09T10:41:26.619Z,21.46
2024-05-09T10:43:54.272Z,22.03
2024-05-09T10:46:50.561Z,21.68
2024-05-09T10:49:21.278Z,23.59
2024-05-09T10:51:51.987Z,24.02
2024-05-09T10:54:19.902Z,23.99
2024-05-09T10:56:59.687Z,23.92
2024-05-09T10:59:35.904Z,22.23
2024-05-09T11:02:07.789Z,22.78
2024-05-09T11:04:45.388Z,23.61
2024-05-09T11:07:19.032Z,24.56
2024-05-09T11:10:14.803Z,24.36
2024-05-09T11:13:13.177Z,25.36
2024-05-09T11:15:41.645Z,26.41
2024-05-09T11:18:27.882Z,26.56
2024-05-09T11:21:00.832Z,27.14
2024-05-09T11:23:34.715Z,25.53
2024-05-09T11:26:04.159Z,24.79
2024-05-09T11:28:34.855Z,24.29
2024-05-09T11:31:08.232Z,24.42
2024-05-09T11:33:41.181Z,25.08
2024-05-09T11:36:12.335Z,25.56
2024-05-09T11:38:43.315Z,24.76
2024-05-09T11:41:28.186Z,26.40
2024-05-09T11:44:02.483Z,26.01
2024-05-09T11:46:34.590Z,24.04
2024-05-09T11:49:10.741Z,25.46
2024-05-09T11:51:42.070Z,24.95
2024-05-09T11:54:11.848Z,24.47
2024-05-09T11:56:39.377Z,23.12
2024-05-09T11:59:11.039Z,24.16
2024-05-09T12:01:40.998Z,24.78
2024-05-09T12:04:12.802Z,24.71
2024-05-09T12:06:45.525Z,23.98
2024-05-09T12:09:15.368Z,25.81
2024-05-09T12:11:45.453Z,25.28
2024-05-09T12:14:15.845Z,26.09
2024-05-09T12:16:44.314Z,22.21
2024-05-09T12:19:14.668Z,22.88
2024-05-09T12:21:44.677Z,23.89
2024-05-09T12:24:18.807Z,24.35
2024-05-09T12:26:46.511Z,25.91
2024-05-09T12:29:16.936Z,25.12
2024-05-09T12:31:46.980Z,23.94
2024-05-09T12:34:22.067Z,24.51
2024-05-09T12:36:53.435Z,24.09
2024-05-09T12:39:26.550Z,25.06
2024-05-09T12:41:54.719Z,25.87
2024-05-09T12:44:27.165Z,24.53
2024-05-09T12:46:54.379Z,25.61
2024-05-09T12:49:41.101Z,25.04
2024-05-09T12:52:14.294Z,24.65
2024-05-09T12:55:08.683Z,24.67
2024-05-09T12:57:46.105Z,24.21
2024-05-09T13:00:28.349Z,23.09
2024-05-09T13:03:01.337Z,26.01
2024-05-09T13:05:32.782Z,23.96
2024-05-09T13:08:12.773Z,22.82
2024-05-09T13:10:47.894Z,24.50
2024-05-09T13:13:15.605Z,23.87
2024-05-09T13:15:49.509Z,24.24
2024-05-09T13:18:22.321Z,24.28
2024-05-09T13:20:55.361Z,24.87
2024-05-09T13:23:29.284Z,26.12
2024-05-09T13:25:58.226Z,25.52
2024-05-09T13:28:34.024Z,25.66
2024-05-09T13:31:01.308Z,26.08
2024-05-09T13:33:31.339Z,25.35
2024-05-09T13:35:58.853Z,24.53
2024-05-09T13:38:31.858Z,24.73
2024-05-09T13:40:59.622Z,24.16
2024-05-09T13:43:29.720Z,23.29
2024-05-09T13:46:00.012Z,23.46
2024-05-09T13:48:32.557Z,22.66
2024-05-09T13:51:00.680Z,22.96
2024-05-09T13:53:33.267Z,22.59
2024-05-09T13:56:02.246Z,22.64
2024-05-09T13:58:32.365Z,22.78
2024-05-09T14:00:59.695Z,22.16
2024-05-09T14:03:31.197Z,22.10
2024-05-09T14:06:01.116Z,22.01
2024-05-09T14:08:36.528Z,21.72
2024-05-09T14:11:06.810Z,21.62
2024-05-09T14:13:37.502Z,21.70
2024-05-09T14:16:07.118Z,21.94
2024-05-09T14:18:38.397Z,22.19
2024-05-09T14:21:06.349Z,21.97
2024-05-09T14:23:40.460Z,21.81
2024-05-09T14:26:07.887Z,21.79
2024-05-09T14:28:40.094Z,21.95
2024-05-09T14:31:07.214Z,21.52
2024-05-09T14:33:37.403Z,22.03
2024-05-09T14:36:05.078Z,21.41
2024-05-09T14:38:36.142Z,21.18
2024-05-09T14:41:09.566Z,21.44
2024-05-09T14:43:40.203Z,21.50
2024-05-09T14:46:07.793Z,21.57
2024-05-09T14:48:38.117Z,21.59
2024-05-09T14:51:06.270Z,21.51
2024-05-09T14:53:38.531Z,21.43
2024-05-09T14:56:11.039Z,21.64
2024-05-09T14:58:41.624Z,21.42
2024-05-09T15:01:09.426Z,21.25
2024-05-09T15:03:39.997Z,21.24
2024-05-09T15:06:09.451Z,21.62
2024-05-09T15:08:39.977Z,21.37
2024-05-09T15:11:10.110Z,21.35
2024-05-09T15:13:41.043Z,21.71
2024-05-09T15:16:09.146Z,21.97
2024-05-09T15:19:55.607Z,21.37
2024-05-09T15:22:25.721Z,21.51
2024-05-09T15:25:08.586Z,21.99
2024-05-09T15:27:47.187Z,21.74
2024-05-09T15:30:31.882Z,21.68
2024-05-09T15:33:08.175Z,21.59
2024-05-09T15:35:45.476Z,21.68
2024-05-09T15:38:20.395Z,21.59
2024-05-09T15:41:01.145Z,21.57
2024-05-09T15:46:30.324Z,21.42
2024-05-09T15:49:03.738Z,21.63
2024-05-09T15:51:36.932Z,21.69
2024-05-09T15:54:28.847Z,21.10
2024-05-09T15:57:29.824Z,21.09
2024-05-09T16:00:09.887Z,21.08
2024-05-09T16:02:45.289Z,21.08
2024-05-09T16:05:19.804Z,21.00
2024-05-09T16:07:55.822Z,21.05
2024-05-09T16:10:33.447Z,20.97
2024-05-09T16:13:02.968Z,20.96
2024-05-09T16:15:54.813Z,21.10
2024-05-09T16:21:16.232Z,20.85
2024-05-09T16:26:48.459Z,20.78
2024-05-09T16:29:30.054Z,20.91
2024-05-09T16:32:03.641Z,20.73
2024-05-09T16:34:30.990Z,20.74
2024-05-09T16:37:09.133Z,20.78
2024-05-09T16:39:40.668Z,20.64
2024-05-09T16:42:19.950Z,20.59
2024-05-09T16:44:55.017Z,20.67
2024-05-09T16:47:38.084Z,20.50
2024-05-09T16:50:31.067Z,20.46
2024-05-09T16:53:09.875Z,20.38
2024-05-09T16:55:41.076Z,20.42
2024-05-09T16:58:18.297Z,20.37
2024-05-09T17:03:46.690Z,20.35
2024-05-09T17:06:23.699Z,20.32
2024-05-09T17:08:51.745Z,20.23
2024-05-09T17:14:27.480Z,20.08
2024-05-09T17:17:02.534Z,20.00
2024-05-09T17:19:33.091Z,19.84
2024-05-09T17:22:18.787Z,19.75
2024-05-09T17:24:51.279Z,19.75
2024-05-09T17:27:25.301Z,19.75
2024-05-09T17:30:06.378Z,19.65
2024-05-09T17:32:58.957Z,19.52
2024-05-09T17:35:52.580Z,19.44
2024-05-09T17:38:23.801Z,19.50
2024-05-09T17:40:53.121Z,19.62
2024-05-09T17:43:23.927Z,19.55
2024-05-09T17:45:57.028Z,19.53
2024-05-09T17:48:27.439Z,19.45
2024-05-09T17:53:43.381Z,18.99
2024-05-09T17:56:11.215Z,18.88
2024-05-09T17:58:41.777Z,18.82
2024-05-09T18:01:10.080Z,18.79
2024-05-09T18:03:41.331Z,18.71
2024-05-09T18:06:11.509Z,18.61
2024-05-09T18:08:46.508Z,18.52
2024-05-09T18:11:32.968Z,18.54
2024-05-09T18:14:04.702Z,18.31
2024-05-09T18:16:33.713Z,18.17
2024-05-09T18:19:05.253Z,17.99
2024-05-09T18:21:39.385Z,17.78
2024-05-09T18:24:11.112Z,17.99
2024-05-09T18:26:42.317Z,17.57
2024-05-09T18:29:19.978Z,17.40
2024-05-09T18:31:50.936Z,17.59
2024-05-09T18:34:23.462Z,17.23
2024-05-09T18:36:55.001Z,17.20
2024-05-09T18:39:25.144Z,17.15
2024-05-09T18:41:52.723Z,17.12
2024-05-09T18:44:27.281Z,17.24
2024-05-09T18:46:55.055Z,16.94
2024-05-09T18:49:26.854Z,16.96
2024-05-09T18:51:57.180Z,16.79
2024-05-09T18:54:27.137Z,16.65
2024-05-09T18:56:55.250Z,16.36
2024-05-09T18:59:25.301Z,16.36
2024-05-09T19:01:53.645Z,16.15
2024-05-09T19:04:26.526Z,15.81
2024-05-09T19:06:56.896Z,15.81
2024-05-09T19:09:26.992Z,15.99
2024-05-09T19:11:55.489Z,15.80
2024-05-09T19:14:25.488Z,16.05
2024-05-09T19:16:54.302Z,15.79
2024-05-09T19:19:25.301Z,15.66
2024-05-09T19:21:52.690Z,15.42
2024-05-09T19:24:25.699Z,15.46
2024-05-09T19:26:54.301Z,15.73
2024-05-09T19:29:25.192Z,15.54
2024-05-09T19:31:52.709Z,15.61
2024-05-09T19:34:22.713Z,15.37
2024-05-09T19:36:50.502Z,15.28
2024-05-09T19:39:20.932Z,15.39
2024-05-09T19:41:53.825Z,15.16
2024-05-09T19:44:25.342Z,15.24
2024-05-09T19:46:52.521Z,15.27
2024-05-09T19:49:24.397Z,15.18
2024-05-09T19:51:51.870Z,15.02
2024-05-09T19:54:24.198Z,14.89
2024-05-09T19:56:56.207Z,14.85
2024-05-09T19:59:28.508Z,14.86
2024-05-09T20:01:56.240Z,14.68
2024-05-09T20:04:34.094Z,14.74
2024-05-09T20:07:04.180Z,14.54
2024-05-09T20:09:35.042Z,14.59
2024-05-09T20:12:06.564Z,14.49
2024-05-09T20:14:37.631Z,14.63
2024-05-09T20:17:05.803Z,14.43
2024-05-09T20:19:40.067Z,14.36
2024-05-09T20:22:09.483Z,14.34
2024-05-09T20:24:39.767Z,14.14
2024-05-09T20:27:11.411Z,14.45
2024-05-09T20:29:41.624Z,14.08
2024-05-09T20:32:09.188Z,14.14
2024-05-09T20:34:42.281Z,14.28
2024-05-09T20:37:10.024Z,14.17
2024-05-09T20:39:41.547Z,13.90
2024-05-09T20:42:12.294Z,13.97
2024-05-09T20:44:42.260Z,14.14
2024-05-09T20:47:13.671Z,14.10
2024-05-09T20:49:46.230Z,13.86
2024-05-09T20:52:14.305Z,13.79
2024-05-09T20:54:50.832Z,13.87
2024-05-09T20:57:20.839Z,13.88
2024-05-09T20:59:51.153Z,13.81
2024-05-09T21:02:20.625Z,13.82
2024-05-09T21:04:54.999Z,13.81
2024-05-09T21:07:23.166Z,13.54
2024-05-09T21:09:53.336Z,13.61
2024-05-09T21:12:23.123Z,13.57
2024-05-09T21:14:54.240Z,13.42
2024-05-09T21:17:21.769Z,13.41
2024-05-09T21:19:52.247Z,13.46
2024-05-09T21:22:19.961Z,13.28
2024-05-09T21:24:50.244Z,13.19
2024-05-09T21:27:19.219Z,13.06
2024-05-09T21:29:54.474Z,13.09
2024-05-09T21:32:22.098Z,13.13
2024-05-09T21:34:53.545Z,13.23
2024-05-09T21:37:21.049Z,13.16
2024-05-09T21:39:52.049Z,13.15
2024-05-09T21:42:20.814Z,12.98
2024-05-09T21:44:53.536Z,12.92
2024-05-09T21:47:23.947Z,12.75
2024-05-09T21:49:54.365Z,13.02
2024-05-09T21:52:21.787Z,12.75
2024-05-09T21:54:52.775Z,12.84
2024-05-09T21:57:24.194Z,12.85
2024-05-09T21:59:57.097Z,12.76
2024-05-09T22:02:26.293Z,12.57
2024-05-09T22:05:01.560Z,12.84
2024-05-09T22:07:32.121Z,12.64
2024-05-09T22:10:07.986Z,12.70
2024-05-09T22:12:37.414Z,12.69
2024-05-09T22:15:11.872Z,12.61
2024-05-09T22:17:40.475Z,12.54
2024-05-09T22:20:21.712Z,12.56
2024-05-09T22:22:55.474Z,12.49
2024-05-09T22:25:29.583Z,12.45
2024-05-09T22:27:58.181Z,12.51
2024-05-09T22:30:36.090Z,12.52
2024-05-09T22:33:10.689Z,12.47
2024-05-09T22:35:45.017Z,12.28
2024-05-09T22:38:24.727Z,12.26
2024-05-09T22:41:00.726Z,12.36
2024-05-09T22:43:28.926Z,12.22
2024-05-09T22:46:02.379Z,12.23
2024-05-09T22:48:30.442Z,12.25
2024-05-09T22:51:00.474Z,12.17
2024-05-09T22:53:27.855Z,12.20
2024-05-09T22:56:00.176Z,12.12
2024-05-09T22:58:29.076Z,12.09
2024-05-09T23:01:04.504Z,12.26
2024-05-09T23:03:33.813Z,12.26
2024-05-09T23:06:10.382Z,12.30
2024-05-09T23:08:41.494Z,12.08
2024-05-09T23:11:12.047Z,12.32
2024-05-09T23:13:42.079Z,12.24
2024-05-09T23:16:19.260Z,12.37
2024-05-09T23:18:46.651Z,12.25
2024-05-09T23:21:17.045Z,12.13
2024-05-09T23:23:44.452Z,12.15
2024-05-09T23:26:14.570Z,12.03
2024-05-09T23:28:42.026Z,12.05
2024-05-09T23:31:15.917Z,11.79
2024-05-09T23:33:47.019Z,11.78
2024-05-09T23:36:17.085Z,11.87
2024-05-09T23:38:45.248Z,11.85
2024-05-09T23:41:16.534Z,12.01
2024-05-09T23:43:43.777Z,11.92
2024-05-09T23:46:16.274Z,11.93
2024-05-09T23:48:43.748Z,11.81
2024-05-09T23:51:14.173Z,11.77
2024-05-09T23:53:44.729Z,11.87
2024-05-09T23:56:18.624Z,11.87
2024-05-09T23:58:47.041Z,11.78
